sensor_id;sensor_type;location;lat;lon;timestamp;P1;durP1;ratioP1;P2;durP2;ratioP2
20411;SDS011;10365;52.578;8.138;2023-07-08T00:01:22;12.00;;;6.85;;
20411;SDS011;10365;52.578;8.138;2023-07-08T00:03:48;9.77;;;6.13;;
20411;SDS011;10365;52.578;8.138;2023-07-08T00:06:20;12.30;;;7.05;;
20411;SDS011;10365;52.578;8.138;2023-07-08T00:08:46;11.43;;;6.88;;
20411;SDS011;10365;52.578;8.138;2023-07-08T00:11:11;10.02;;;6.43;;
20411;SDS011;10365;52.578;8.138;2023-07-08T00:13:37;9.68;;;6.78;;
20411;SDS011;10365;52.578;8.138;2023-07-08T00:16:02;11.00;;;8.13;;
20411;SDS011;10365;52.578;8.138;2023-07-08T00:18:28;15.25;;;10.68;;
20411;SDS011;10365;52.578;8.138;2023-07-08T00:20:53;13.90;;;9.10;;
20411;SDS011;10365;52.578;8.138;2023-07-08T00:23:18;10.35;;;8.13;;
20411;SDS011;10365;52.578;8.138;2023-07-08T00:25:47;10.95;;;7.18;;
20411;SDS011;10365;52.578;8.138;2023-07-08T00:28:16;11.18;;;7.57;;
20411;SDS011;10365;52.578;8.138;2023-07-08T00:30:42;12.15;;;6.88;;
20411;SDS011;10365;52.578;8.138;2023-07-08T00:33:08;11.65;;;8.07;;
20411;SDS011;10365;52.578;8.138;2023-07-08T00:38:02;12.13;;;7.95;;
20411;SDS011;10365;52.578;8.138;2023-07-08T00:40:28;13.93;;;8.05;;
20411;SDS011;10365;52.578;8.138;2023-07-08T00:42:54;10.77;;;7.35;;
20411;SDS011;10365;52.578;8.138;2023-07-08T00:45:27;9.48;;;7.55;;
20411;SDS011;10365;52.578;8.138;2023-07-08T00:47:54;12.52;;;8.30;;
20411;SDS011;10365;52.578;8.138;2023-07-08T00:50:20;10.68;;;7.72;;
20411;SDS011;10365;52.578;8.138;2023-07-08T00:52:46;15.95;;;8.23;;
20411;SDS011;10365;52.578;8.138;2023-07-08T00:55:11;14.10;;;7.65;;
20411;SDS011;10365;52.578;8.138;2023-07-08T00:57:38;13.75;;;7.90;;
20411;SDS011;10365;52.578;8.138;2023-07-08T01:00:08;14.57;;;8.95;;
20411;SDS011;10365;52.578;8.138;2023-07-08T01:02:36;11.15;;;7.82;;
20411;SDS011;10365;52.578;8.138;2023-07-08T01:05:19;12.25;;;8.60;;
20411;SDS011;10365;52.578;8.138;2023-07-08T01:07:48;13.40;;;9.70;;
20411;SDS011;10365;52.578;8.138;2023-07-08T01:10:17;16.58;;;9.80;;
20411;SDS011;10365;52.578;8.138;2023-07-08T01:12:48;16.92;;;10.30;;
20411;SDS011;10365;52.578;8.138;2023-07-08T01:15:14;19.15;;;11.75;;
20411;SDS011;10365;52.578;8.138;2023-07-08T01:17:41;15.93;;;12.23;;
20411;SDS011;10365;52.578;8.138;2023-07-08T01:20:07;17.33;;;13.88;;
20411;SDS011;10365;52.578;8.138;2023-07-08T01:22:38;21.23;;;14.93;;
20411;SDS011;10365;52.578;8.138;2023-07-08T01:25:05;18.05;;;14.32;;
20411;SDS011;10365;52.578;8.138;2023-07-08T01:27:31;17.58;;;10.70;;
20411;SDS011;10365;52.578;8.138;2023-07-08T01:30:00;12.70;;;9.02;;
20411;SDS011;10365;52.578;8.138;2023-07-08T01:32:25;12.98;;;9.23;;
20411;SDS011;10365;52.578;8.138;2023-07-08T01:34:51;15.98;;;8.95;;
20411;SDS011;10365;52.578;8.138;2023-07-08T01:37:31;18.27;;;10.32;;
20411;SDS011;10365;52.578;8.138;2023-07-08T01:39:57;15.63;;;9.52;;
20411;SDS011;10365;52.578;8.138;2023-07-08T01:42:22;15.70;;;9.02;;
20411;SDS011;10365;52.578;8.138;2023-07-08T01:44:48;14.35;;;9.40;;
20411;SDS011;10365;52.578;8.138;2023-07-08T01:47:16;14.35;;;9.65;;
20411;SDS011;10365;52.578;8.138;2023-07-08T01:49:44;15.63;;;11.25;;
20411;SDS011;10365;52.578;8.138;2023-07-08T01:52:10;16.58;;;10.77;;
20411;SDS011;10365;52.578;8.138;2023-07-08T01:54:36;14.43;;;9.80;;
20411;SDS011;10365;52.578;8.138;2023-07-08T01:57:02;15.73;;;11.10;;
20411;SDS011;10365;52.578;8.138;2023-07-08T01:59:27;18.10;;;12.00;;
20411;SDS011;10365;52.578;8.138;2023-07-08T02:01:53;17.67;;;11.07;;
20411;SDS011;10365;52.578;8.138;2023-07-08T02:04:23;21.30;;;12.90;;
20411;SDS011;10365;52.578;8.138;2023-07-08T02:06:59;17.98;;;12.27;;
20411;SDS011;10365;52.578;8.138;2023-07-08T02:09:26;19.77;;;12.43;;
20411;SDS011;10365;52.578;8.138;2023-07-08T02:11:54;17.20;;;12.88;;
20411;SDS011;10365;52.578;8.138;2023-07-08T02:14:19;16.23;;;12.93;;
20411;SDS011;10365;52.578;8.138;2023-07-08T02:16:44;22.83;;;13.13;;
20411;SDS011;10365;52.578;8.138;2023-07-08T02:19:10;16.85;;;12.88;;
20411;SDS011;10365;52.578;8.138;2023-07-08T02:21:35;16.48;;;11.25;;
20411;SDS011;10365;52.578;8.138;2023-07-08T02:24:02;20.77;;;11.50;;
20411;SDS011;10365;52.578;8.138;2023-07-08T02:26:27;13.88;;;10.43;;
20411;SDS011;10365;52.578;8.138;2023-07-08T02:28:54;17.95;;;11.38;;
20411;SDS011;10365;52.578;8.138;2023-07-08T02:31:19;20.95;;;10.77;;
20411;SDS011;10365;52.578;8.138;2023-07-08T02:33:47;16.77;;;11.63;;
20411;SDS011;10365;52.578;8.138;2023-07-08T02:36:12;17.45;;;10.95;;
20411;SDS011;10365;52.578;8.138;2023-07-08T02:38:40;13.63;;;10.07;;
20411;SDS011;10365;52.578;8.138;2023-07-08T02:41:07;14.05;;;9.75;;
20411;SDS011;10365;52.578;8.138;2023-07-08T02:43:32;11.60;;;9.25;;
20411;SDS011;10365;52.578;8.138;2023-07-08T02:45:58;10.57;;;9.18;;
20411;SDS011;10365;52.578;8.138;2023-07-08T02:48:23;13.23;;;10.13;;
20411;SDS011;10365;52.578;8.138;2023-07-08T02:50:49;18.75;;;11.05;;
20411;SDS011;10365;52.578;8.138;2023-07-08T02:53:14;15.85;;;10.43;;
20411;SDS011;10365;52.578;8.138;2023-07-08T02:55:39;18.00;;;10.25;;
20411;SDS011;10365;52.578;8.138;2023-07-08T02:58:08;14.07;;;10.55;;
20411;SDS011;10365;52.578;8.138;2023-07-08T03:00:34;12.40;;;9.77;;
20411;SDS011;10365;52.578;8.138;2023-07-08T03:03:03;11.45;;;9.35;;
20411;SDS011;10365;52.578;8.138;2023-07-08T03:05:28;13.88;;;9.77;;
20411;SDS011;10365;52.578;8.138;2023-07-08T03:07:54;14.23;;;9.88;;
20411;SDS011;10365;52.578;8.138;2023-07-08T03:10:19;10.30;;;9.07;;
20411;SDS011;10365;52.578;8.138;2023-07-08T03:12:44;12.65;;;9.40;;
20411;SDS011;10365;52.578;8.138;2023-07-08T03:15:10;15.13;;;9.57;;
20411;SDS011;10365;52.578;8.138;2023-07-08T03:17:36;15.15;;;9.27;;
20411;SDS011;10365;52.578;8.138;2023-07-08T03:20:01;13.13;;;9.38;;
20411;SDS011;10365;52.578;8.138;2023-07-08T03:22:26;15.85;;;9.88;;
20411;SDS011;10365;52.578;8.138;2023-07-08T03:24:51;14.30;;;9.30;;
20411;SDS011;10365;52.578;8.138;2023-07-08T03:27:20;14.50;;;9.77;;
20411;SDS011;10365;52.578;8.138;2023-07-08T03:29:48;10.48;;;9.18;;
20411;SDS011;10365;52.578;8.138;2023-07-08T03:32:13;14.70;;;9.88;;
20411;SDS011;10365;52.578;8.138;2023-07-08T03:34:39;14.18;;;8.55;;
20411;SDS011;10365;52.578;8.138;2023-07-08T03:37:05;9.95;;;8.57;;
20411;SDS011;10365;52.578;8.138;2023-07-08T03:39:30;8.90;;;7.93;;
20411;SDS011;10365;52.578;8.138;2023-07-08T03:41:59;13.35;;;7.88;;
20411;SDS011;10365;52.578;8.138;2023-07-08T03:44:24;12.35;;;7.75;;
20411;SDS011;10365;52.578;8.138;2023-07-08T03:46:50;11.00;;;8.50;;
20411;SDS011;10365;52.578;8.138;2023-07-08T03:49:17;12.65;;;8.57;;
20411;SDS011;10365;52.578;8.138;2023-07-08T03:51:47;13.85;;;8.52;;
20411;SDS011;10365;52.578;8.138;2023-07-08T03:54:16;9.73;;;7.82;;
20411;SDS011;10365;52.578;8.138;2023-07-08T03:56:42;10.15;;;7.32;;
20411;SDS011;10365;52.578;8.138;2023-07-08T03:59:08;11.07;;;7.32;;
20411;SDS011;10365;52.578;8.138;2023-07-08T04:01:36;11.60;;;7.22;;
20411;SDS011;10365;52.578;8.138;2023-07-08T04:04:09;11.68;;;6.65;;
20411;SDS011;10365;52.578;8.138;2023-07-08T04:06:36;8.32;;;6.65;;
20411;SDS011;10365;52.578;8.138;2023-07-08T04:09:01;9.65;;;7.00;;
20411;SDS011;10365;52.578;8.138;2023-07-08T04:11:26;11.20;;;7.30;;
20411;SDS011;10365;52.578;8.138;2023-07-08T04:13:52;10.70;;;7.70;;
20411;SDS011;10365;52.578;8.138;2023-07-08T04:18:46;10.20;;;7.30;;
20411;SDS011;10365;52.578;8.138;2023-07-08T04:21:12;8.45;;;6.05;;
20411;SDS011;10365;52.578;8.138;2023-07-08T04:23:37;8.77;;;6.63;;
20411;SDS011;10365;52.578;8.138;2023-07-08T04:26:03;14.70;;;7.03;;
20411;SDS011;10365;52.578;8.138;2023-07-08T04:28:28;9.02;;;6.07;;
20411;SDS011;10365;52.578;8.138;2023-07-08T04:30:53;8.65;;;6.20;;
20411;SDS011;10365;52.578;8.138;2023-07-08T04:33:19;12.25;;;6.05;;
20411;SDS011;10365;52.578;8.138;2023-07-08T04:35:44;13.25;;;5.72;;
20411;SDS011;10365;52.578;8.138;2023-07-08T04:38:17;7.88;;;5.43;;
20411;SDS011;10365;52.578;8.138;2023-07-08T04:40:42;8.18;;;5.95;;
20411;SDS011;10365;52.578;8.138;2023-07-08T04:43:09;9.40;;;5.78;;
20411;SDS011;10365;52.578;8.138;2023-07-08T04:45:37;6.90;;;5.93;;
20411;SDS011;10365;52.578;8.138;2023-07-08T04:48:03;14.10;;;6.43;;
20411;SDS011;10365;52.578;8.138;2023-07-08T04:50:41;6.78;;;5.35;;
20411;SDS011;10365;52.578;8.138;2023-07-08T04:53:07;7.63;;;5.55;;
20411;SDS011;10365;52.578;8.138;2023-07-08T04:55:32;8.90;;;6.40;;
20411;SDS011;10365;52.578;8.138;2023-07-08T04:57:58;6.25;;;5.50;;
20411;SDS011;10365;52.578;8.138;2023-07-08T05:00:23;6.38;;;5.60;;
20411;SDS011;10365;52.578;8.138;2023-07-08T05:02:48;9.75;;;5.50;;
20411;SDS011;10365;52.578;8.138;2023-07-08T05:05:14;7.07;;;4.85;;
20411;SDS011;10365;52.578;8.138;2023-07-08T05:07:39;6.80;;;4.60;;
20411;SDS011;10365;52.578;8.138;2023-07-08T05:10:04;10.00;;;4.53;;
20411;SDS011;10365;52.578;8.138;2023-07-08T05:12:30;8.38;;;4.85;;
20411;SDS011;10365;52.578;8.138;2023-07-08T05:14:55;5.88;;;4.00;;
20411;SDS011;10365;52.578;8.138;2023-07-08T05:17:20;6.43;;;4.40;;
20411;SDS011;10365;52.578;8.138;2023-07-08T05:19:46;5.47;;;4.05;;
20411;SDS011;10365;52.578;8.138;2023-07-08T05:22:14;8.25;;;4.18;;
20411;SDS011;10365;52.578;8.138;2023-07-08T05:24:40;5.03;;;3.53;;
20411;SDS011;10365;52.578;8.138;2023-07-08T05:27:05;5.57;;;3.33;;
20411;SDS011;10365;52.578;8.138;2023-07-08T05:29:30;6.45;;;3.95;;
20411;SDS011;10365;52.578;8.138;2023-07-08T05:31:56;10.75;;;3.97;;
20411;SDS011;10365;52.578;8.138;2023-07-08T05:34:21;8.98;;;3.47;;
20411;SDS011;10365;52.578;8.138;2023-07-08T05:36:46;7.10;;;3.97;;
20411;SDS011;10365;52.578;8.138;2023-07-08T05:39:12;4.78;;;3.50;;
20411;SDS011;10365;52.578;8.138;2023-07-08T05:41:37;7.45;;;3.25;;
20411;SDS011;10365;52.578;8.138;2023-07-08T05:44:02;8.00;;;3.75;;
20411;SDS011;10365;52.578;8.138;2023-07-08T05:46:28;5.70;;;3.40;;
20411;SDS011;10365;52.578;8.138;2023-07-08T05:48:53;7.50;;;3.65;;
20411;SDS011;10365;52.578;8.138;2023-07-08T05:51:19;4.47;;;3.25;;
20411;SDS011;10365;52.578;8.138;2023-07-08T05:53:44;5.22;;;3.65;;
20411;SDS011;10365;52.578;8.138;2023-07-08T05:56:09;5.93;;;4.38;;
20411;SDS011;10365;52.578;8.138;2023-07-08T05:58:34;6.67;;;3.70;;
20411;SDS011;10365;52.578;8.138;2023-07-08T06:01:00;4.55;;;3.72;;
20411;SDS011;10365;52.578;8.138;2023-07-08T06:03:25;8.90;;;3.30;;
20411;SDS011;10365;52.578;8.138;2023-07-08T06:05:50;7.30;;;3.88;;
20411;SDS011;10365;52.578;8.138;2023-07-08T06:08:16;5.38;;;3.72;;
20411;SDS011;10365;52.578;8.138;2023-07-08T06:10:42;6.22;;;3.92;;
20411;SDS011;10365;52.578;8.138;2023-07-08T06:13:07;5.47;;;4.28;;
20411;SDS011;10365;52.578;8.138;2023-07-08T06:15:33;6.43;;;4.05;;
20411;SDS011;10365;52.578;8.138;2023-07-08T06:17:58;6.07;;;4.13;;
20411;SDS011;10365;52.578;8.138;2023-07-08T06:20:27;5.25;;;3.35;;
20411;SDS011;10365;52.578;8.138;2023-07-08T06:22:52;6.05;;;3.67;;
20411;SDS011;10365;52.578;8.138;2023-07-08T06:25:18;7.25;;;4.10;;
20411;SDS011;10365;52.578;8.138;2023-07-08T06:27:43;7.78;;;4.18;;
20411;SDS011;10365;52.578;8.138;2023-07-08T06:30:09;6.45;;;3.72;;
20411;SDS011;10365;52.578;8.138;2023-07-08T06:32:34;6.05;;;3.83;;
20411;SDS011;10365;52.578;8.138;2023-07-08T06:35:00;5.45;;;3.78;;
20411;SDS011;10365;52.578;8.138;2023-07-08T06:37:25;5.68;;;3.60;;
20411;SDS011;10365;52.578;8.138;2023-07-08T06:39:50;6.30;;;4.50;;
20411;SDS011;10365;52.578;8.138;2023-07-08T06:42:16;9.15;;;4.20;;
20411;SDS011;10365;52.578;8.138;2023-07-08T06:44:49;7.25;;;4.20;;
20411;SDS011;10365;52.578;8.138;2023-07-08T06:47:17;7.93;;;3.60;;
20411;SDS011;10365;52.578;8.138;2023-07-08T06:49:43;4.93;;;3.60;;
20411;SDS011;10365;52.578;8.138;2023-07-08T06:52:08;7.80;;;3.63;;
20411;SDS011;10365;52.578;8.138;2023-07-08T06:54:34;5.68;;;3.30;;
20411;SDS011;10365;52.578;8.138;2023-07-08T06:56:59;6.47;;;3.42;;
20411;SDS011;10365;52.578;8.138;2023-07-08T06:59:24;7.22;;;3.55;;
20411;SDS011;10365;52.578;8.138;2023-07-08T07:01:49;5.32;;;3.42;;
20411;SDS011;10365;52.578;8.138;2023-07-08T07:04:15;7.95;;;3.53;;
20411;SDS011;10365;52.578;8.138;2023-07-08T07:06:40;4.28;;;3.00;;
20411;SDS011;10365;52.578;8.138;2023-07-08T07:09:05;6.05;;;3.67;;
20411;SDS011;10365;52.578;8.138;2023-07-08T07:11:31;4.30;;;3.20;;
20411;SDS011;10365;52.578;8.138;2023-07-08T07:13:56;6.13;;;3.92;;
20411;SDS011;10365;52.578;8.138;2023-07-08T07:16:22;4.00;;;2.92;;
20411;SDS011;10365;52.578;8.138;2023-07-08T07:18:47;5.35;;;3.08;;
20411;SDS011;10365;52.578;8.138;2023-07-08T07:21:18;3.75;;;3.00;;
20411;SDS011;10365;52.578;8.138;2023-07-08T07:23:44;7.95;;;3.50;;
20411;SDS011;10365;52.578;8.138;2023-07-08T07:26:09;5.45;;;3.45;;
20411;SDS011;10365;52.578;8.138;2023-07-08T07:28:34;4.60;;;3.08;;
20411;SDS011;10365;52.578;8.138;2023-07-08T07:30:59;6.72;;;3.20;;
20411;SDS011;10365;52.578;8.138;2023-07-08T07:33:25;6.53;;;3.22;;
20411;SDS011;10365;52.578;8.138;2023-07-08T07:35:50;7.10;;;3.10;;
20411;SDS011;10365;52.578;8.138;2023-07-08T07:38:16;3.75;;;3.03;;
20411;SDS011;10365;52.578;8.138;2023-07-08T07:40:41;6.32;;;3.33;;
20411;SDS011;10365;52.578;8.138;2023-07-08T07:43:07;5.10;;;2.97;;
20411;SDS011;10365;52.578;8.138;2023-07-08T07:45:32;6.72;;;3.47;;
20411;SDS011;10365;52.578;8.138;2023-07-08T07:47:57;5.45;;;2.67;;
20411;SDS011;10365;52.578;8.138;2023-07-08T07:50:23;4.70;;;2.92;;
20411;SDS011;10365;52.578;8.138;2023-07-08T07:52:48;7.00;;;3.35;;
20411;SDS011;10365;52.578;8.138;2023-07-08T07:55:14;7.97;;;3.25;;
20411;SDS011;10365;52.578;8.138;2023-07-08T07:57:39;6.93;;;3.78;;
20411;SDS011;10365;52.578;8.138;2023-07-08T08:00:07;7.78;;;3.22;;
20411;SDS011;10365;52.578;8.138;2023-07-08T08:02:38;7.20;;;3.65;;
20411;SDS011;10365;52.578;8.138;2023-07-08T08:05:03;4.72;;;2.63;;
20411;SDS011;10365;52.578;8.138;2023-07-08T08:07:29;3.50;;;2.88;;
20411;SDS011;10365;52.578;8.138;2023-07-08T08:09:54;4.75;;;2.92;;
20411;SDS011;10365;52.578;8.138;2023-07-08T08:12:20;8.75;;;3.38;;
20411;SDS011;10365;52.578;8.138;2023-07-08T08:14:47;4.85;;;2.88;;
20411;SDS011;10365;52.578;8.138;2023-07-08T08:17:12;4.75;;;3.33;;
20411;SDS011;10365;52.578;8.138;2023-07-08T08:19:38;4.68;;;3.00;;
20411;SDS011;10365;52.578;8.138;2023-07-08T08:22:03;5.03;;;2.72;;
20411;SDS011;10365;52.578;8.138;2023-07-08T08:24:28;6.60;;;3.42;;
20411;SDS011;10365;52.578;8.138;2023-07-08T08:26:54;5.43;;;2.80;;
20411;SDS011;10365;52.578;8.138;2023-07-08T08:29:19;4.95;;;2.83;;
20411;SDS011;10365;52.578;8.138;2023-07-08T08:31:44;6.28;;;3.17;;
20411;SDS011;10365;52.578;8.138;2023-07-08T08:34:10;5.95;;;3.08;;
20411;SDS011;10365;52.578;8.138;2023-07-08T08:36:35;6.72;;;3.05;;
20411;SDS011;10365;52.578;8.138;2023-07-08T08:39:00;5.63;;;2.92;;
20411;SDS011;10365;52.578;8.138;2023-07-08T08:41:33;5.03;;;3.00;;
20411;SDS011;10365;52.578;8.138;2023-07-08T08:43:59;6.70;;;3.30;;
20411;SDS011;10365;52.578;8.138;2023-07-08T08:49:41;4.68;;;3.20;;
20411;SDS011;10365;52.578;8.138;2023-07-08T08:52:09;3.90;;;3.22;;
20411;SDS011;10365;52.578;8.138;2023-07-08T08:54:34;4.90;;;2.90;;
20411;SDS011;10365;52.578;8.138;2023-07-08T08:57:02;7.40;;;3.17;;
20411;SDS011;10365;52.578;8.138;2023-07-08T09:02:37;5.03;;;3.10;;
20411;SDS011;10365;52.578;8.138;2023-07-08T09:05:01;5.32;;;3.20;;
20411;SDS011;10365;52.578;8.138;2023-07-08T09:07:27;8.50;;;3.75;;
20411;SDS011;10365;52.578;8.138;2023-07-08T09:09:57;5.63;;;3.20;;
20411;SDS011;10365;52.578;8.138;2023-07-08T09:12:24;4.88;;;2.95;;
20411;SDS011;10365;52.578;8.138;2023-07-08T09:14:51;4.43;;;3.20;;
20411;SDS011;10365;52.578;8.138;2023-07-08T09:17:32;4.32;;;3.25;;
20411;SDS011;10365;52.578;8.138;2023-07-08T09:22:35;4.80;;;3.45;;
20411;SDS011;10365;52.578;8.138;2023-07-08T09:25:11;6.45;;;3.47;;
20411;SDS011;10365;52.578;8.138;2023-07-08T09:27:41;7.20;;;3.00;;
20411;SDS011;10365;52.578;8.138;2023-07-08T09:30:12;7.78;;;3.13;;
20411;SDS011;10365;52.578;8.138;2023-07-08T09:32:38;4.25;;;3.10;;
20411;SDS011;10365;52.578;8.138;2023-07-08T09:35:05;4.63;;;3.30;;
20411;SDS011;10365;52.578;8.138;2023-07-08T09:37:32;4.18;;;2.97;;
20411;SDS011;10365;52.578;8.138;2023-07-08T09:39:59;5.65;;;3.15;;
20411;SDS011;10365;52.578;8.138;2023-07-08T09:42:26;6.55;;;2.90;;
20411;SDS011;10365;52.578;8.138;2023-07-08T09:44:56;6.20;;;3.13;;
20411;SDS011;10365;52.578;8.138;2023-07-08T09:47:23;5.03;;;2.88;;
20411;SDS011;10365;52.578;8.138;2023-07-08T09:49:49;5.38;;;3.08;;
20411;SDS011;10365;52.578;8.138;2023-07-08T09:52:14;10.02;;;3.00;;
20411;SDS011;10365;52.578;8.138;2023-07-08T09:54:42;6.72;;;2.90;;
20411;SDS011;10365;52.578;8.138;2023-07-08T09:57:26;4.22;;;2.80;;
20411;SDS011;10365;52.578;8.138;2023-07-08T09:59:54;5.22;;;3.35;;
20411;SDS011;10365;52.578;8.138;2023-07-08T10:02:25;6.93;;;3.13;;
20411;SDS011;10365;52.578;8.138;2023-07-08T10:04:52;5.82;;;2.85;;
20411;SDS011;10365;52.578;8.138;2023-07-08T10:07:18;4.65;;;3.08;;
20411;SDS011;10365;52.578;8.138;2023-07-08T10:09:43;3.85;;;2.85;;
20411;SDS011;10365;52.578;8.138;2023-07-08T10:12:11;5.82;;;3.00;;
20411;SDS011;10365;52.578;8.138;2023-07-08T10:14:39;7.25;;;2.92;;
20411;SDS011;10365;52.578;8.138;2023-07-08T10:17:17;6.10;;;2.92;;
20411;SDS011;10365;52.578;8.138;2023-07-08T10:19:44;6.45;;;3.33;;
20411;SDS011;10365;52.578;8.138;2023-07-08T10:32:22;5.28;;;2.90;;
20411;SDS011;10365;52.578;8.138;2023-07-08T10:35:00;6.47;;;3.58;;
20411;SDS011;10365;52.578;8.138;2023-07-08T10:37:37;10.05;;;3.20;;
20411;SDS011;10365;52.578;8.138;2023-07-08T10:40:14;7.72;;;3.53;;
20411;SDS011;10365;52.578;8.138;2023-07-08T10:42:50;4.88;;;3.00;;
20411;SDS011;10365;52.578;8.138;2023-07-08T10:50:47;5.03;;;2.92;;
20411;SDS011;10365;52.578;8.138;2023-07-08T10:55:55;7.18;;;2.60;;
20411;SDS011;10365;52.578;8.138;2023-07-08T10:58:30;4.82;;;3.08;;
20411;SDS011;10365;52.578;8.138;2023-07-08T11:06:00;4.47;;;3.10;;
20411;SDS011;10365;52.578;8.138;2023-07-08T11:08:27;6.80;;;3.15;;
20411;SDS011;10365;52.578;8.138;2023-07-08T11:13:23;6.10;;;2.93;;
20411;SDS011;10365;52.578;8.138;2023-07-08T11:15:57;5.20;;;3.00;;
20411;SDS011;10365;52.578;8.138;2023-07-08T11:21:00;9.05;;;4.15;;
20411;SDS011;10365;52.578;8.138;2023-07-08T11:28:39;5.80;;;3.13;;
20411;SDS011;10365;52.578;8.138;2023-07-08T11:31:05;8.38;;;3.30;;
20411;SDS011;10365;52.578;8.138;2023-07-08T11:33:30;6.30;;;3.50;;
20411;SDS011;10365;52.578;8.138;2023-07-08T11:35:57;4.05;;;2.92;;
20411;SDS011;10365;52.578;8.138;2023-07-08T11:38:24;9.27;;;3.65;;
20411;SDS011;10365;52.578;8.138;2023-07-08T11:40:57;6.00;;;3.67;;
20411;SDS011;10365;52.578;8.138;2023-07-08T11:43:24;4.90;;;3.08;;
20411;SDS011;10365;52.578;8.138;2023-07-08T11:45:50;5.13;;;3.08;;
20411;SDS011;10365;52.578;8.138;2023-07-08T11:48:20;5.07;;;3.15;;
20411;SDS011;10365;52.578;8.138;2023-07-08T11:50:47;4.18;;;3.00;;
20411;SDS011;10365;52.578;8.138;2023-07-08T11:53:26;4.68;;;3.25;;
20411;SDS011;10365;52.578;8.138;2023-07-08T11:56:00;7.80;;;3.60;;
20411;SDS011;10365;52.578;8.138;2023-07-08T11:58:27;6.07;;;3.35;;
20411;SDS011;10365;52.578;8.138;2023-07-08T12:00:54;7.00;;;3.20;;
20411;SDS011;10365;52.578;8.138;2023-07-08T12:03:22;8.25;;;3.25;;
20411;SDS011;10365;52.578;8.138;2023-07-08T12:05:47;7.75;;;3.60;;
20411;SDS011;10365;52.578;8.138;2023-07-08T12:08:15;5.43;;;3.47;;
20411;SDS011;10365;52.578;8.138;2023-07-08T12:10:46;5.90;;;3.20;;
20411;SDS011;10365;52.578;8.138;2023-07-08T12:13:16;4.80;;;3.20;;
20411;SDS011;10365;52.578;8.138;2023-07-08T12:15:42;5.50;;;3.47;;
20411;SDS011;10365;52.578;8.138;2023-07-08T12:20:37;9.02;;;3.45;;
20411;SDS011;10365;52.578;8.138;2023-07-08T12:23:07;7.07;;;3.50;;
20411;SDS011;10365;52.578;8.138;2023-07-08T12:25:33;6.63;;;3.50;;
20411;SDS011;10365;52.578;8.138;2023-07-08T12:28:00;7.53;;;3.97;;
20411;SDS011;10365;52.578;8.138;2023-07-08T12:30:25;8.05;;;3.75;;
20411;SDS011;10365;52.578;8.138;2023-07-08T12:32:52;9.93;;;3.58;;
20411;SDS011;10365;52.578;8.138;2023-07-08T12:35:22;9.40;;;3.95;;
20411;SDS011;10365;52.578;8.138;2023-07-08T12:37:48;6.43;;;3.72;;
20411;SDS011;10365;52.578;8.138;2023-07-08T12:40:13;10.40;;;4.20;;
20411;SDS011;10365;52.578;8.138;2023-07-08T12:42:39;5.22;;;3.42;;
20411;SDS011;10365;52.578;8.138;2023-07-08T12:45:12;6.03;;;3.95;;
20411;SDS011;10365;52.578;8.138;2023-07-08T12:47:38;6.75;;;3.78;;
20411;SDS011;10365;52.578;8.138;2023-07-08T12:50:03;5.63;;;3.60;;
20411;SDS011;10365;52.578;8.138;2023-07-08T12:52:29;6.35;;;4.53;;
20411;SDS011;10365;52.578;8.138;2023-07-08T12:54:54;10.68;;;4.43;;
20411;SDS011;10365;52.578;8.138;2023-07-08T12:57:19;6.32;;;4.47;;
20411;SDS011;10365;52.578;8.138;2023-07-08T12:59:45;6.10;;;4.07;;
20411;SDS011;10365;52.578;8.138;2023-07-08T13:02:17;7.45;;;3.95;;
20411;SDS011;10365;52.578;8.138;2023-07-08T13:04:44;6.10;;;3.83;;
20411;SDS011;10365;52.578;8.138;2023-07-08T13:07:13;6.97;;;3.95;;
20411;SDS011;10365;52.578;8.138;2023-07-08T13:09:44;5.43;;;4.07;;
20411;SDS011;10365;52.578;8.138;2023-07-08T13:12:20;7.05;;;4.35;;
20411;SDS011;10365;52.578;8.138;2023-07-08T13:14:48;8.18;;;4.43;;
20411;SDS011;10365;52.578;8.138;2023-07-08T13:17:14;7.25;;;4.68;;
20411;SDS011;10365;52.578;8.138;2023-07-08T13:19:41;7.60;;;4.63;;
20411;SDS011;10365;52.578;8.138;2023-07-08T13:22:09;5.85;;;4.40;;
20411;SDS011;10365;52.578;8.138;2023-07-08T13:24:37;6.35;;;4.63;;
20411;SDS011;10365;52.578;8.138;2023-07-08T13:27:04;6.10;;;4.10;;
20411;SDS011;10365;52.578;8.138;2023-07-08T13:29:34;7.30;;;4.50;;
20411;SDS011;10365;52.578;8.138;2023-07-08T13:32:04;6.55;;;4.47;;
20411;SDS011;10365;52.578;8.138;2023-07-08T13:34:30;8.32;;;4.57;;
20411;SDS011;10365;52.578;8.138;2023-07-08T13:36:57;5.18;;;3.90;;
20411;SDS011;10365;52.578;8.138;2023-07-08T13:39:25;7.80;;;4.60;;
20411;SDS011;10365;52.578;8.138;2023-07-08T13:41:51;7.05;;;4.68;;
20411;SDS011;10365;52.578;8.138;2023-07-08T13:44:17;9.75;;;4.80;;
20411;SDS011;10365;52.578;8.138;2023-07-08T13:46:50;5.60;;;4.00;;
20411;SDS011;10365;52.578;8.138;2023-07-08T13:49:27;5.00;;;4.28;;
20411;SDS011;10365;52.578;8.138;2023-07-08T13:54:34;6.50;;;4.30;;
20411;SDS011;10365;52.578;8.138;2023-07-08T13:57:01;5.38;;;4.07;;
20411;SDS011;10365;52.578;8.138;2023-07-08T13:59:27;8.63;;;4.10;;
20411;SDS011;10365;52.578;8.138;2023-07-08T14:01:54;6.30;;;4.32;;
20411;SDS011;10365;52.578;8.138;2023-07-08T14:12:37;7.45;;;4.32;;
20411;SDS011;10365;52.578;8.138;2023-07-08T14:15:02;9.00;;;4.35;;
20411;SDS011;10365;52.578;8.138;2023-07-08T14:17:28;6.20;;;4.00;;
20411;SDS011;10365;52.578;8.138;2023-07-08T14:19:53;7.00;;;3.95;;
20411;SDS011;10365;52.578;8.138;2023-07-08T14:24:44;7.73;;;4.10;;
20411;SDS011;10365;52.578;8.138;2023-07-08T14:27:09;6.82;;;4.35;;
20411;SDS011;10365;52.578;8.138;2023-07-08T14:29:40;7.80;;;4.30;;
20411;SDS011;10365;52.578;8.138;2023-07-08T14:32:12;8.63;;;4.40;;
20411;SDS011;10365;52.578;8.138;2023-07-08T14:34:39;5.25;;;3.97;;
20411;SDS011;10365;52.578;8.138;2023-07-08T14:37:11;7.03;;;3.83;;
20411;SDS011;10365;52.578;8.138;2023-07-08T14:39:38;5.40;;;4.13;;
20411;SDS011;10365;52.578;8.138;2023-07-08T14:42:05;8.73;;;4.00;;
20411;SDS011;10365;52.578;8.138;2023-07-08T14:44:31;6.63;;;4.13;;
20411;SDS011;10365;52.578;8.138;2023-07-08T14:46:58;5.45;;;3.80;;
20411;SDS011;10365;52.578;8.138;2023-07-08T14:49:23;5.28;;;3.88;;
20411;SDS011;10365;52.578;8.138;2023-07-08T14:51:51;5.18;;;4.07;;
20411;SDS011;10365;52.578;8.138;2023-07-08T14:54:20;6.65;;;3.67;;
20411;SDS011;10365;52.578;8.138;2023-07-08T14:56:46;5.97;;;4.00;;
20411;SDS011;10365;52.578;8.138;2023-07-08T14:59:15;9.32;;;4.13;;
20411;SDS011;10365;52.578;8.138;2023-07-08T15:01:41;4.75;;;3.80;;
20411;SDS011;10365;52.578;8.138;2023-07-08T15:04:10;6.80;;;4.25;;
20411;SDS011;10365;52.578;8.138;2023-07-08T15:06:36;5.28;;;4.18;;
20411;SDS011;10365;52.578;8.138;2023-07-08T15:09:01;7.32;;;3.85;;
20411;SDS011;10365;52.578;8.138;2023-07-08T15:11:27;6.22;;;4.00;;
20411;SDS011;10365;52.578;8.138;2023-07-08T15:13:52;9.82;;;4.07;;
20411;SDS011;10365;52.578;8.138;2023-07-08T15:16:17;8.60;;;4.30;;
20411;SDS011;10365;52.578;8.138;2023-07-08T15:18:44;5.95;;;3.65;;
20411;SDS011;10365;52.578;8.138;2023-07-08T15:21:12;5.60;;;4.00;;
20411;SDS011;10365;52.578;8.138;2023-07-08T15:23:38;7.97;;;4.03;;
20411;SDS011;10365;52.578;8.138;2023-07-08T15:26:03;7.13;;;4.28;;
20411;SDS011;10365;52.578;8.138;2023-07-08T15:28:38;5.30;;;3.80;;
20411;SDS011;10365;52.578;8.138;2023-07-08T15:31:12;5.43;;;4.38;;
20411;SDS011;10365;52.578;8.138;2023-07-08T15:33:37;5.73;;;4.43;;
20411;SDS011;10365;52.578;8.138;2023-07-08T15:36:02;5.23;;;4.13;;
20411;SDS011;10365;52.578;8.138;2023-07-08T15:38:28;5.87;;;4.40;;
20411;SDS011;10365;52.578;8.138;2023-07-08T15:40:53;8.53;;;4.20;;
20411;SDS011;10365;52.578;8.138;2023-07-08T15:43:19;6.30;;;4.28;;
20411;SDS011;10365;52.578;8.138;2023-07-08T15:45:44;5.47;;;4.07;;